createdAt,value
2023-02-06T00:00:53.840Z,-3.37
2023-02-06T00:03:20.761Z,-3.29
2023-02-06T00:05:58.062Z,-3.36
2023-02-06T00:08:26.270Z,-3.45
2023-02-06T00:10:53.343Z,-3.34
2023-02-06T00:13:20.548Z,-3.44
2023-02-06T00:15:47.625Z,-3.52
2023-02-06T00:18:14.582Z,-3.39
2023-02-06T00:20:41.443Z,-3.44
2023-02-06T00:23:08.273Z,-3.48
2023-02-06T00:25:35.412Z,-3.42
2023-02-06T00:28:02.546Z,-3.36
2023-02-06T00:30:29.557Z,-3.44
2023-02-06T00:32:56.454Z,-3.44
2023-02-06T00:35:23.263Z,-3.27
2023-02-06T00:37:51.046Z,-3.36
2023-02-06T00:40:18.927Z,-3.36
2023-02-06T00:42:45.848Z,-3.22
2023-02-06T00:45:13.146Z,-3.29
2023-02-06T00:47:41.137Z,-3.31
2023-02-06T00:50:09.892Z,-3.24
2023-02-06T00:52:36.792Z,-3.15
2023-02-06T00:55:05.116Z,-3.28
2023-02-06T00:57:31.969Z,-3.30
2023-02-06T00:59:58.813Z,-3.08
2023-02-06T01:02:26.906Z,-3.18
2023-02-06T01:04:53.756Z,-3.29
2023-02-06T01:07:20.660Z,-3.10
2023-02-06T01:09:47.539Z,-3.17
2023-02-06T01:12:14.409Z,-3.22
2023-02-06T01:14:41.183Z,-3.16
2023-02-06T01:17:10.709Z,-3.09
2023-02-06T01:19:39.250Z,-3.18
2023-02-06T01:22:06.936Z,-3.21
2023-02-06T01:24:34.854Z,-3.05
2023-02-06T01:27:01.807Z,-3.10
2023-02-06T01:29:28.581Z,-3.14
2023-02-06T01:31:56.142Z,-2.96
2023-02-06T01:34:22.996Z,-2.99
2023-02-06T01:36:49.896Z,-3.05
2023-02-06T01:39:16.851Z,-2.96
2023-02-06T01:41:43.687Z,-2.89
2023-02-06T01:44:24.768Z,-2.98
2023-02-06T01:46:54.373Z,-2.94
2023-02-06T01:49:25.500Z,-2.82
2023-02-06T01:51:56.325Z,-2.92
2023-02-06T01:54:24.051Z,-2.96
2023-02-06T01:56:56.526Z,-2.78
2023-02-06T01:59:24.967Z,-2.88
2023-02-06T02:01:52.196Z,-2.96
2023-02-06T02:04:24.489Z,-2.84
2023-02-06T02:07:04.466Z,-2.85
2023-02-06T02:09:32.102Z,-2.96
2023-02-06T02:11:58.966Z,-2.84
2023-02-06T02:14:25.955Z,-2.83
2023-02-06T02:17:15.427Z,-2.90
2023-02-06T02:19:54.446Z,-2.80
2023-02-06T02:22:50.604Z,-2.82
2023-02-06T02:25:42.387Z,-2.87
2023-02-06T02:28:30.969Z,-2.74
2023-02-06T02:30:57.867Z,-2.79
2023-02-06T02:33:36.815Z,-2.83
2023-02-06T02:36:26.299Z,-2.69
2023-02-06T02:38:59.893Z,-2.80
2023-02-06T02:41:57.089Z,-2.89
2023-02-06T02:44:48.801Z,-2.75
2023-02-06T02:47:19.618Z,-2.82
2023-02-06T02:49:47.403Z,-2.86
2023-02-06T02:52:15.029Z,-2.75
2023-02-06T02:54:41.858Z,-2.75
2023-02-06T02:57:14.820Z,-2.83
2023-02-06T02:59:46.506Z,-2.77
2023-02-06T03:02:21.563Z,-2.71
2023-02-06T03:04:56.573Z,-2.82
2023-02-06T03:07:37.941Z,-2.77
2023-02-06T03:10:27.974Z,-2.72
2023-02-06T03:27:47.154Z,-2.88
2023-02-06T03:30:16.674Z,-2.86
2023-02-06T03:32:49.558Z,-2.77
2023-02-06T03:35:29.349Z,-2.73
2023-02-06T03:37:56.487Z,-2.82
2023-02-06T03:40:24.654Z,-2.75
2023-02-06T03:42:56.355Z,-2.54
2023-02-06T03:45:28.524Z,-2.75
2023-02-06T03:47:58.834Z,-2.81
2023-02-06T03:50:28.472Z,-2.62
2023-02-06T03:52:58.234Z,-2.77
2023-02-06T03:55:25.709Z,-2.83
2023-02-06T03:58:00.579Z,-2.72
2023-02-06T04:00:30.908Z,-2.74
2023-02-06T04:02:59.468Z,-2.83
2023-02-06T04:05:26.758Z,-2.84
2023-02-06T04:07:56.559Z,-2.64
2023-02-06T04:10:26.199Z,-2.83
2023-02-06T04:12:53.671Z,-2.90
2023-02-06T04:15:20.731Z,-2.78
2023-02-06T04:17:59.435Z,-2.84
2023-02-06T04:20:27.374Z,-2.98
2023-02-06T04:22:54.439Z,-2.95
2023-02-06T04:25:21.505Z,-2.76
2023-02-06T04:27:48.559Z,-2.89
2023-02-06T04:30:15.791Z,-2.97
2023-02-06T04:32:42.721Z,-2.84
2023-02-06T04:35:10.049Z,-2.95
2023-02-06T04:37:37.755Z,-3.04
2023-02-06T04:40:05.630Z,-3.03
2023-02-06T04:42:32.653Z,-2.94
2023-02-06T04:44:59.533Z,-3.11
2023-02-06T04:47:26.385Z,-3.18
2023-02-06T04:49:53.325Z,-3.03
2023-02-06T04:52:20.373Z,-3.14
2023-02-06T04:54:47.387Z,-3.22
2023-02-06T04:57:14.302Z,-3.20
2023-02-06T04:59:41.192Z,-3.06
2023-02-06T05:02:08.066Z,-3.24
2023-02-06T05:04:35.059Z,-3.31
2023-02-06T05:07:03.071Z,-3.15
2023-02-06T05:09:31.404Z,-3.22
2023-02-06T05:11:58.342Z,-3.30
2023-02-06T05:14:25.205Z,-3.29
2023-02-06T05:16:52.122Z,-3.07
2023-02-06T05:19:18.956Z,-3.24
2023-02-06T05:21:45.830Z,-3.27
2023-02-06T05:24:12.988Z,-3.13
2023-02-06T05:26:39.906Z,-3.07
2023-02-06T05:29:07.006Z,-3.14
2023-02-06T05:31:33.917Z,-3.17
2023-02-06T05:34:00.852Z,-3.00
2023-02-06T05:36:29.318Z,-3.11
2023-02-06T05:38:56.259Z,-3.18
2023-02-06T05:41:23.159Z,-3.12
2023-02-06T05:43:50.322Z,-2.89
2023-02-06T05:46:17.282Z,-3.09
2023-02-06T05:48:44.137Z,-3.13
2023-02-06T05:51:11.087Z,-2.94
2023-02-06T05:53:38.036Z,-3.05
2023-02-06T05:56:05.457Z,-2.93
2023-02-06T05:58:32.480Z,-2.54
2023-02-06T06:00:59.532Z,-2.64
2023-02-06T06:03:26.501Z,-2.45
2023-02-06T06:05:54.415Z,-2.38
2023-02-06T06:08:22.194Z,-2.32
2023-02-06T06:10:52.695Z,-1.99
2023-02-06T06:13:19.699Z,-1.96
2023-02-06T06:15:50.926Z,-1.54
2023-02-06T06:18:19.067Z,-1.79
2023-02-06T06:20:46.356Z,-1.76
2023-02-06T06:23:13.374Z,-1.80
2023-02-06T06:25:40.159Z,-1.77
2023-02-06T06:28:07.289Z,-0.91
2023-02-06T06:30:35.680Z,-1.18
2023-02-06T06:33:02.718Z,-1.03
2023-02-06T06:35:29.774Z,-1.47
2023-02-06T06:37:56.832Z,-1.70
2023-02-06T06:40:23.760Z,-1.38
2023-02-06T06:42:50.731Z,-1.73
2023-02-06T06:45:17.741Z,-1.54
2023-02-06T06:47:44.713Z,-1.58
2023-02-06T06:50:11.637Z,-1.05
2023-02-06T06:52:38.543Z,-0.25
2023-02-06T06:55:05.664Z,-0.85
2023-02-06T06:57:32.629Z,0.00
2023-02-06T06:59:59.532Z,-0.21
2023-02-06T07:02:28.689Z,-0.50
2023-02-06T07:04:56.039Z,-0.87
2023-02-06T07:07:23.009Z,-1.53
2023-02-06T07:09:49.888Z,-1.20
2023-02-06T07:12:16.719Z,-1.50
2023-02-06T07:14:43.603Z,-1.46
2023-02-06T07:17:10.520Z,-1.48
2023-02-06T07:19:37.505Z,-1.77
2023-02-06T07:22:04.517Z,-1.54
2023-02-06T07:24:31.373Z,-1.74
2023-02-06T07:26:58.247Z,-1.51
2023-02-06T07:29:25.372Z,-1.63
2023-02-06T07:31:52.346Z,-1.80
2023-02-06T07:34:19.274Z,-1.60
2023-02-06T07:36:46.715Z,-1.83
2023-02-06T07:39:13.579Z,-1.69
2023-02-06T07:41:40.495Z,-1.93
2023-02-06T07:44:07.429Z,-1.82
2023-02-06T07:46:34.822Z,-1.72
2023-02-06T07:49:01.851Z,-1.94
2023-02-06T07:51:29.159Z,-1.54
2023-02-06T07:53:56.132Z,-1.16
2023-02-06T07:56:25.804Z,-0.49
2023-02-06T07:58:54.210Z,0.65
2023-02-06T08:01:22.892Z,0.47
2023-02-06T08:03:51.700Z,1.72
2023-02-06T08:06:19.763Z,1.14
2023-02-06T08:08:46.924Z,2.75
2023-02-06T08:11:16.590Z,3.36
2023-02-06T08:13:46.523Z,3.65
2023-02-06T08:16:18.690Z,4.52
2023-02-06T08:18:46.142Z,2.24
2023-02-06T08:21:18.762Z,1.50
2023-02-06T08:23:45.674Z,1.63
2023-02-06T08:26:17.878Z,2.35
2023-02-06T08:28:47.313Z,2.74
2023-02-06T08:31:20.022Z,1.86
2023-02-06T08:33:47.098Z,3.44
2023-02-06T08:36:15.118Z,3.54
2023-02-06T08:38:41.986Z,4.21
2023-02-06T08:41:37.189Z,3.42
2023-02-06T08:44:05.516Z,3.12
2023-02-06T08:46:33.055Z,3.80
2023-02-06T08:49:05.255Z,3.50
2023-02-06T08:51:34.227Z,5.10
2023-02-06T08:54:04.035Z,3.92
2023-02-06T08:56:32.789Z,3.41
2023-02-06T08:59:00.162Z,3.64
2023-02-06T09:01:29.033Z,2.93
2023-02-06T09:03:57.972Z,3.87
2023-02-06T09:06:25.715Z,2.75
2023-02-06T09:08:53.547Z,2.40
2023-02-06T09:11:22.541Z,2.40
2023-02-06T09:13:49.901Z,2.18
2023-02-06T09:16:19.798Z,3.18
2023-02-06T09:18:47.928Z,2.55
2023-02-06T09:21:17.803Z,3.28
2023-02-06T09:23:49.878Z,2.42
2023-02-06T09:26:20.478Z,1.50
2023-02-06T09:28:47.758Z,1.63
2023-02-06T09:31:14.852Z,0.60
2023-02-06T09:33:41.703Z,0.93
2023-02-06T09:36:14.671Z,0.34
2023-02-06T09:38:44.438Z,0.38
2023-02-06T09:41:26.461Z,0.12
2023-02-06T09:44:06.700Z,-0.49
2023-02-06T09:46:37.125Z,-0.22
2023-02-06T09:49:12.699Z,-0.57
2023-02-06T09:52:12.774Z,-0.41
2023-02-06T09:55:00.761Z,-0.19
2023-02-06T09:58:01.381Z,-0.20
2023-02-06T10:00:49.877Z,0.18
2023-02-06T10:03:35.146Z,-0.38
2023-02-06T10:06:25.437Z,-0.11
2023-02-06T10:09:03.509Z,-0.64
2023-02-06T10:11:57.146Z,-0.33
2023-02-06T10:14:45.216Z,-0.12
2023-02-06T10:17:25.322Z,-0.31
2023-02-06T10:20:03.511Z,-0.12
2023-02-06T10:22:40.298Z,-0.47
2023-02-06T10:25:38.084Z,0.10
2023-02-06T10:28:26.573Z,-0.29
2023-02-06T10:31:15.104Z,-0.52
2023-02-06T10:34:02.166Z,-0.39
2023-02-06T10:36:41.469Z,-0.68
2023-02-06T10:39:28.533Z,-0.34
2023-02-06T10:42:06.148Z,-0.80
2023-02-06T10:45:06.510Z,-0.49
2023-02-06T10:47:49.483Z,-0.51
2023-02-06T10:50:19.557Z,-0.52
2023-02-06T10:52:46.946Z,0.02
2023-02-06T10:55:24.845Z,-0.40
2023-02-06T10:58:16.429Z,-0.25
2023-02-06T11:00:46.162Z,0.15
2023-02-06T11:03:20.925Z,-0.06
2023-02-06T11:05:48.347Z,1.44
2023-02-06T11:08:32.662Z,1.32
2023-02-06T11:11:18.265Z,0.75
2023-02-06T11:13:48.622Z,0.26
2023-02-06T11:16:22.159Z,0.14
2023-02-06T11:18:50.389Z,2.85
2023-02-06T11:21:46.057Z,2.93
2023-02-06T11:24:15.667Z,2.36
2023-02-06T11:26:46.793Z,1.70
2023-02-06T11:29:29.969Z,0.38
2023-02-06T11:32:00.562Z,0.51
2023-02-06T11:34:33.555Z,0.01
2023-02-06T11:37:02.097Z,0.05
2023-02-06T11:39:37.932Z,-0.18
2023-02-06T11:42:22.800Z,-0.49
2023-02-06T11:44:49.611Z,-0.10
2023-02-06T11:47:37.585Z,-0.24
2023-02-06T11:50:13.773Z,0.93
2023-02-06T11:52:44.252Z,0.21
2023-02-06T11:55:23.457Z,0.92
2023-02-06T11:58:14.540Z,0.02
2023-02-06T12:01:05.861Z,0.99
2023-02-06T12:03:35.163Z,0.39
2023-02-06T12:06:14.046Z,-0.40
2023-02-06T12:08:54.252Z,0.15
2023-02-06T12:11:26.451Z,0.59
2023-02-06T12:14:02.660Z,1.55
2023-02-06T12:16:30.349Z,0.25
2023-02-06T12:18:59.912Z,1.00
2023-02-06T12:21:56.188Z,0.98
2023-02-06T12:24:37.629Z,0.49
2023-02-06T12:27:17.078Z,0.54
2023-02-06T12:29:51.450Z,0.05
2023-02-06T12:32:23.319Z,0.00
2023-02-06T12:35:00.556Z,-0.73
2023-02-06T12:37:42.566Z,-0.59
2023-02-06T12:41:06.782Z,-0.95
2023-02-06T12:43:35.823Z,-0.90
2023-02-06T12:46:09.132Z,-1.08
2023-02-06T12:48:54.931Z,-0.98
2023-02-06T12:51:45.230Z,-0.84
2023-02-06T12:54:20.224Z,-0.99
2023-02-06T12:56:49.228Z,-0.84
2023-02-06T12:59:57.516Z,-0.99
2023-02-06T13:02:41.928Z,-0.73
2023-02-06T13:05:22.232Z,-1.10
2023-02-06T13:07:50.921Z,-0.77
2023-02-06T13:10:25.050Z,-0.98
2023-02-06T13:12:57.008Z,-0.99
2023-02-06T13:15:27.262Z,-0.95
2023-02-06T13:17:55.815Z,-1.13
2023-02-06T13:20:25.776Z,-1.04
2023-02-06T13:22:52.845Z,-1.09
2023-02-06T13:25:25.947Z,-0.80
2023-02-06T13:27:54.553Z,-0.83
2023-02-06T13:30:24.024Z,-0.89
2023-02-06T13:32:51.355Z,-0.68
2023-02-06T13:35:22.616Z,-0.97
2023-02-06T13:37:51.698Z,-0.79
2023-02-06T13:40:30.842Z,-1.01
2023-02-06T13:43:03.805Z,-0.96
2023-02-06T13:45:36.761Z,-1.05
2023-02-06T13:48:10.205Z,-1.13
2023-02-06T13:51:16.872Z,-0.83
2023-02-06T13:54:08.246Z,-1.13
2023-02-06T13:57:00.022Z,-1.14
2023-02-06T13:59:34.868Z,-1.49
2023-02-06T14:02:10.789Z,-1.30
2023-02-06T14:04:38.268Z,-1.57
2023-02-06T14:07:23.266Z,-1.49
2023-02-06T14:09:53.145Z,-1.57
2023-02-06T14:12:55.765Z,-1.56
2023-02-06T14:15:33.111Z,-1.56
2023-02-06T14:18:38.454Z,-1.60
2023-02-06T14:21:17.359Z,-1.54
2023-02-06T14:23:59.160Z,-1.72
2023-02-06T14:26:29.108Z,-1.62
2023-02-06T14:29:19.293Z,-1.77
2023-02-06T14:32:25.769Z,-1.67
2023-02-06T14:35:19.688Z,-1.87
2023-02-06T14:38:18.621Z,-1.71
2023-02-06T14:40:51.750Z,-1.88
2023-02-06T14:43:23.205Z,-1.72
2023-02-06T14:46:07.113Z,-1.79
2023-02-06T14:48:41.228Z,-1.72
2023-02-06T14:51:17.985Z,-1.68
2023-02-06T14:54:01.755Z,-1.96
2023-02-06T14:56:37.518Z,-1.86
2023-02-06T14:59:13.590Z,-2.14
2023-02-06T15:01:42.087Z,-1.96
2023-02-06T15:04:15.284Z,-2.10
2023-02-06T15:07:09.808Z,-2.18
2023-02-06T15:09:40.443Z,-2.16
2023-02-06T15:12:24.747Z,-2.19
2023-02-06T15:29:50.216Z,-2.55
2023-02-06T15:32:32.600Z,-2.47
2023-02-06T15:35:01.169Z,-2.53
2023-02-06T15:37:29.496Z,-2.40
2023-02-06T15:40:19.649Z,-2.47
2023-02-06T15:42:50.603Z,-2.41
2023-02-06T15:45:26.417Z,-2.46
2023-02-06T15:47:55.071Z,-2.52
2023-02-06T15:50:28.478Z,-2.45
2023-02-06T15:52:56.401Z,-2.54
2023-02-06T15:55:31.457Z,-2.52
2023-02-06T15:58:00.605Z,-2.55
2023-02-06T16:00:32.920Z,-2.54
2023-02-06T16:03:04.838Z,-2.47
2023-02-06T16:05:38.419Z,-2.64
2023-02-06T16:08:10.917Z,-2.61
2023-02-06T16:10:39.849Z,-2.69
2023-02-06T16:13:14.954Z,-2.59
2023-02-06T16:16:03.283Z,-2.59
2023-02-06T16:18:32.827Z,-2.61
2023-02-06T16:21:21.049Z,-2.59
2023-02-06T16:24:06.882Z,-2.59
2023-02-06T16:26:52.240Z,-2.48
2023-02-06T16:29:31.970Z,-2.57
2023-02-06T16:32:23.417Z,-2.53
2023-02-06T16:34:50.651Z,-2.59
2023-02-06T16:37:23.286Z,-2.51
2023-02-06T16:39:50.437Z,-2.59
2023-02-06T16:42:27.120Z,-2.57
2023-02-06T16:44:59.587Z,-2.48
2023-02-06T16:47:26.870Z,-2.60
2023-02-06T16:49:53.888Z,-2.50
2023-02-06T16:52:23.972Z,-2.54
2023-02-06T16:54:51.081Z,-2.57
2023-02-06T16:57:45.533Z,-2.51
2023-02-06T17:00:22.062Z,-2.51
2023-02-06T17:02:52.063Z,-2.44
2023-02-06T17:05:21.337Z,-2.54
2023-02-06T17:07:51.127Z,-2.51
2023-02-06T17:10:21.475Z,-2.51
2023-02-06T17:12:49.243Z,-2.51
2023-02-06T17:15:18.465Z,-2.51
2023-02-06T17:17:46.132Z,-2.56
2023-02-06T17:20:29.116Z,-2.53
2023-02-06T17:22:55.941Z,-2.58
2023-02-06T17:25:22.841Z,-2.58
2023-02-06T17:27:50.259Z,-2.61
2023-02-06T17:30:19.785Z,-2.61
2023-02-06T17:32:47.181Z,-2.56
2023-02-06T17:35:14.364Z,-2.58
2023-02-06T17:37:41.257Z,-2.55
2023-02-06T17:40:09.713Z,-2.58
2023-02-06T17:42:36.576Z,-2.60
2023-02-06T17:45:03.749Z,-2.60
2023-02-06T17:47:31.025Z,-2.61
2023-02-06T17:49:58.003Z,-2.63
2023-02-06T17:52:24.884Z,-2.72
2023-02-06T17:54:51.883Z,-2.74
2023-02-06T17:57:18.773Z,-2.72
2023-02-06T17:59:45.631Z,-2.74
2023-02-06T18:02:14.710Z,-2.59
2023-02-06T18:04:41.544Z,-2.74
2023-02-06T18:07:08.453Z,-2.64
2023-02-06T18:09:35.456Z,-2.72
2023-02-06T18:12:02.437Z,-2.73
2023-02-06T18:14:29.294Z,-2.65
2023-02-06T18:16:56.083Z,-2.78
2023-02-06T18:19:24.950Z,-2.73
2023-02-06T18:21:51.832Z,-2.73
2023-02-06T18:24:18.737Z,-2.70
2023-02-06T18:26:46.955Z,-2.67
2023-02-06T18:29:13.823Z,-2.77
2023-02-06T18:31:40.732Z,-2.61
2023-02-06T18:34:08.397Z,-2.74
2023-02-06T18:36:36.640Z,-2.78
2023-02-06T18:39:05.360Z,-2.73
2023-02-06T18:41:50.678Z,-2.78
2023-02-06T18:44:17.572Z,-2.76
2023-02-06T18:46:44.685Z,-2.80
2023-02-06T18:49:11.545Z,-2.76
2023-02-06T18:51:38.872Z,-2.70
2023-02-06T18:54:07.873Z,-2.71
2023-02-06T18:56:35.011Z,-2.63
2023-02-06T18:59:05.658Z,-2.74
2023-02-06T19:01:33.192Z,-2.67
2023-02-06T19:04:00.143Z,-2.61
2023-02-06T19:06:32.163Z,-2.68
2023-02-06T19:08:59.595Z,-2.64
2023-02-06T19:11:27.102Z,-2.70
2023-02-06T19:13:54.871Z,-2.61
2023-02-06T19:16:22.174Z,-2.72
2023-02-06T19:18:49.671Z,-2.66
2023-02-06T19:21:19.442Z,-2.62
2023-02-06T19:23:52.606Z,-2.69
2023-02-06T19:26:19.775Z,-2.59
2023-02-06T19:28:47.174Z,-2.60
2023-02-06T19:31:15.434Z,-2.54
2023-02-06T19:33:42.513Z,-2.60
2023-02-06T19:36:12.530Z,-2.61
2023-02-06T19:38:40.407Z,-2.52
2023-02-06T19:41:14.087Z,-2.64
2023-02-06T19:43:41.738Z,-2.53
2023-02-06T19:46:12.248Z,-2.56
2023-02-06T19:48:42.516Z,-2.55
2023-02-06T19:51:21.879Z,-2.61
2023-02-06T19:53:50.471Z,-2.66
2023-02-06T19:56:23.917Z,-2.41
2023-02-06T19:59:23.906Z,-2.68
2023-02-06T20:01:56.557Z,-2.61
2023-02-06T20:04:26.643Z,-2.61
2023-02-06T20:06:55.742Z,-2.54
2023-02-06T20:09:23.853Z,-2.56
2023-02-06T20:11:51.313Z,-2.65
2023-02-06T20:14:19.233Z,-2.58
2023-02-06T20:16:47.044Z,-2.73
2023-02-06T20:19:18.661Z,-2.67
2023-02-06T20:21:48.406Z,-2.67
2023-02-06T20:24:18.682Z,-2.71
2023-02-06T20:26:45.764Z,-2.60
2023-02-06T20:29:22.415Z,-2.65
2023-02-06T20:31:50.354Z,-2.51
2023-02-06T20:34:18.539Z,-2.64
2023-02-06T20:36:46.403Z,-2.66
2023-02-06T20:39:14.572Z,-2.64
2023-02-06T20:41:42.415Z,-2.71
2023-02-06T20:44:10.630Z,-2.65
2023-02-06T20:46:37.713Z,-2.69
2023-02-06T20:49:09.272Z,-2.64
2023-02-06T20:51:36.905Z,-2.66
2023-02-06T20:54:04.073Z,-2.74
2023-02-06T20:56:31.360Z,-2.57
2023-02-06T20:59:01.345Z,-2.73
2023-02-06T21:01:31.693Z,-2.66
2023-02-06T21:04:03.197Z,-2.67
2023-02-06T21:06:31.388Z,-2.71
2023-02-06T21:09:00.336Z,-2.63
2023-02-06T21:11:30.251Z,-2.80
2023-02-06T21:13:59.066Z,-2.75
2023-02-06T21:16:27.280Z,-2.80
2023-02-06T21:18:55.207Z,-2.75
2023-02-06T21:21:22.147Z,-2.76
2023-02-06T21:23:49.616Z,-2.85
2023-02-06T21:26:18.331Z,-2.71
2023-02-06T21:28:48.750Z,-2.85
2023-02-06T21:31:21.566Z,-2.83
2023-02-06T21:33:49.957Z,-2.84
2023-02-06T21:36:17.105Z,-2.89
2023-02-06T21:38:44.686Z,-2.85
2023-02-06T21:41:17.332Z,-2.93
2023-02-06T21:43:45.505Z,-2.88
2023-02-06T21:46:13.350Z,-2.96
2023-02-06T21:48:41.238Z,-2.94
2023-02-06T21:51:14.058Z,-2.92
2023-02-06T21:53:42.457Z,-2.98
2023-02-06T21:56:14.145Z,-2.89
2023-02-06T21:58:41.197Z,-2.99
2023-02-06T22:01:13.175Z,-3.01
2023-02-06T22:03:40.169Z,-3.05
2023-02-06T22:06:11.867Z,-3.09
2023-02-06T22:08:42.696Z,-3.04
2023-02-06T22:11:30.135Z,-3.12
2023-02-06T22:13:59.331Z,-3.09
2023-02-06T22:16:26.662Z,-3.16
2023-02-06T22:18:53.701Z,-3.14
2023-02-06T22:21:23.975Z,-3.17
2023-02-06T22:23:51.870Z,-3.24
2023-02-06T22:26:21.185Z,-3.15
2023-02-06T22:28:48.371Z,-3.25
2023-02-06T22:31:28.417Z,-3.20
2023-02-06T22:33:55.689Z,-3.22
2023-02-06T22:36:25.464Z,-3.25
2023-02-06T22:38:58.458Z,-3.23
2023-02-06T22:41:25.772Z,-3.27
2023-02-06T22:43:52.870Z,-3.29
2023-02-06T22:46:19.786Z,-3.26
2023-02-06T22:48:47.266Z,-3.20
2023-02-06T22:51:14.234Z,-3.13
2023-02-06T22:53:41.655Z,-3.22
2023-02-06T22:56:31.421Z,-3.19
2023-02-06T22:59:12.909Z,-3.27
2023-02-06T23:01:54.937Z,-3.18
2023-02-06T23:04:28.311Z,-3.22
2023-02-06T23:06:56.177Z,-3.22
2023-02-06T23:09:26.905Z,-3.20
2023-02-06T23:11:54.661Z,-3.22
2023-02-06T23:14:21.710Z,-3.13
2023-02-06T23:16:48.823Z,-3.13
2023-02-06T23:19:17.562Z,-3.15
2023-02-06T23:21:46.241Z,-3.19
2023-02-06T23:24:14.301Z,-3.16
2023-02-06T23:26:43.805Z,-3.02
2023-02-06T23:29:15.793Z,-3.11
2023-02-06T23:31:43.284Z,-3.05
2023-02-06T23:34:10.827Z,-3.06
2023-02-06T23:36:37.959Z,-2.99
2023-02-06T23:39:05.695Z,-2.90
2023-02-06T23:41:33.168Z,-3.02
2023-02-06T23:44:02.775Z,-2.90
2023-02-06T23:46:31.899Z,-2.97
2023-02-06T23:48:59.437Z,-2.98
2023-02-06T23:51:26.828Z,-2.97
2023-02-06T23:53:54.048Z,-3.01
2023-02-06T23:56:24.496Z,-2.90
2023-02-06T23:58:52.692Z,-3.00
